createdAt,value
2022-11-20T00:00:18.530Z,99.64
2022-11-20T00:01:18.493Z,99.64
2022-11-20T00:02:18.486Z,99.16
2022-11-20T00:03:18.428Z,98.88
2022-11-20T00:04:18.383Z,98.88
2022-11-20T00:05:18.336Z,99.16
2022-11-20T00:06:18.300Z,99.07
2022-11-20T00:07:18.302Z,98.88
2022-11-20T00:08:18.222Z,98.88
2022-11-20T00:09:18.557Z,98.88
2022-11-20T00:10:18.155Z,99.07
2022-11-20T00:11:18.111Z,98.97
2022-11-20T00:12:18.072Z,99.73
2022-11-20T00:13:18.032Z,99.73
2022-11-20T00:14:18.000Z,99.26
2022-11-20T00:15:17.961Z,99.07
2022-11-20T00:16:17.912Z,99.07
2022-11-20T00:17:17.876Z,98.59
2022-11-20T00:18:17.835Z,98.69
2022-11-20T00:19:18.216Z,98.79
2022-11-20T00:20:17.787Z,98.97
2022-11-20T00:21:17.720Z,98.97
2022-11-20T00:22:17.688Z,98.59
2022-11-20T00:23:17.717Z,98.59
2022-11-20T00:24:17.613Z,99.07
2022-11-20T00:25:17.583Z,98.88
2022-11-20T00:26:17.533Z,99.26
2022-11-20T00:27:17.493Z,98.97
2022-11-20T00:28:17.454Z,99.07
2022-11-20T00:29:17.495Z,98.97
2022-11-20T00:30:17.377Z,99.07
2022-11-20T00:31:17.357Z,98.97
2022-11-20T00:32:17.309Z,99.26
2022-11-20T00:33:17.277Z,98.59
2022-11-20T00:34:17.226Z,98.59
2022-11-20T00:35:17.184Z,98.88
2022-11-20T00:36:17.150Z,99.44
2022-11-20T00:37:17.126Z,99.16
2022-11-20T00:38:17.073Z,98.97
2022-11-20T00:39:17.031Z,99.26
2022-11-20T00:40:17.071Z,98.69
2022-11-20T00:41:16.957Z,98.97
2022-11-20T00:42:16.919Z,99.44
2022-11-20T00:43:16.892Z,99.16
2022-11-20T00:44:16.852Z,98.69
2022-11-20T00:45:16.803Z,98.79
2022-11-20T00:46:16.772Z,98.88
2022-11-20T00:47:16.738Z,98.69
2022-11-20T00:48:16.689Z,98.59
2022-11-20T00:49:16.651Z,98.88
2022-11-20T00:50:16.612Z,98.79
2022-11-20T00:51:16.573Z,98.97
2022-11-20T00:52:16.609Z,98.69
2022-11-20T00:53:16.499Z,99.26
2022-11-20T00:54:16.457Z,99.16
2022-11-20T00:55:16.419Z,98.97
2022-11-20T00:56:16.386Z,98.88
2022-11-20T00:57:16.343Z,99.07
2022-11-20T00:58:16.309Z,99.07
2022-11-20T00:59:16.281Z,99.07
2022-11-20T01:00:16.225Z,98.88
2022-11-20T01:01:16.276Z,99.73
2022-11-20T01:02:16.154Z,99.73
2022-11-20T01:03:16.111Z,99.73
2022-11-20T01:04:16.068Z,99.83
2022-11-20T01:05:16.038Z,98.79
2022-11-20T01:06:15.995Z,98.88
2022-11-20T01:07:15.979Z,99.07
2022-11-20T01:08:15.918Z,99.07
2022-11-20T01:09:15.880Z,99.64
2022-11-20T01:10:15.845Z,99.64
2022-11-20T01:11:15.805Z,99.73
2022-11-20T01:12:15.779Z,99.92
2022-11-20T01:13:15.736Z,99.54
2022-11-20T01:14:15.687Z,99.54
2022-11-20T01:15:15.654Z,99.64
2022-11-20T01:16:15.631Z,99.07
2022-11-20T01:17:15.579Z,98.97
2022-11-20T01:18:15.536Z,98.97
2022-11-20T01:19:17.940Z,99.07
2022-11-20T01:20:15.452Z,99.73
2022-11-20T01:21:15.423Z,99.54
2022-11-20T01:22:15.376Z,99.73
2022-11-20T01:23:15.346Z,99.64
2022-11-20T01:24:15.317Z,99.64
2022-11-20T01:25:15.323Z,99.54
2022-11-20T01:26:15.234Z,99.35
2022-11-20T01:27:15.184Z,99.54
2022-11-20T01:28:15.145Z,99.54
2022-11-20T01:29:15.128Z,99.73
2022-11-20T01:30:15.072Z,99.83
2022-11-20T01:31:15.034Z,99.35
2022-11-20T01:32:14.998Z,99.54
2022-11-20T01:33:14.963Z,99.73
2022-11-20T01:34:14.932Z,99.83
2022-11-20T01:35:14.886Z,99.73
2022-11-20T01:36:14.843Z,99.64
2022-11-20T01:37:14.805Z,99.07
2022-11-20T01:38:14.769Z,98.97
2022-11-20T01:39:14.732Z,99.73
2022-11-20T01:40:14.689Z,99.26
2022-11-20T01:41:14.650Z,99.73
2022-11-20T01:42:14.613Z,99.64
2022-11-20T01:43:14.571Z,99.54
2022-11-20T01:44:14.538Z,99.54
2022-11-20T01:45:14.496Z,99.73
2022-11-20T01:46:14.456Z,99.64
2022-11-20T01:47:14.422Z,99.64
2022-11-20T01:48:14.379Z,99.83
2022-11-20T01:49:14.339Z,99.64
2022-11-20T01:50:14.306Z,99.83
2022-11-20T01:51:14.265Z,99.64
2022-11-20T01:52:14.233Z,99.83
2022-11-20T01:53:14.190Z,99.64
2022-11-20T01:54:14.150Z,99.73
2022-11-20T01:55:14.112Z,99.73
2022-11-20T01:56:14.068Z,99.35
2022-11-20T01:57:14.038Z,99.44
2022-11-20T01:58:13.995Z,99.83
2022-11-20T01:59:13.959Z,99.64
2022-11-20T02:00:13.920Z,99.64
2022-11-20T02:01:13.990Z,99.83
2022-11-20T02:02:13.865Z,99.54
2022-11-20T02:03:13.805Z,99.16
2022-11-20T02:04:13.763Z,99.44
2022-11-20T02:05:13.724Z,99.35
2022-11-20T02:06:13.689Z,99.35
2022-11-20T02:07:13.673Z,99.44
2022-11-20T02:08:13.611Z,99.73
2022-11-20T02:09:13.568Z,99.35
2022-11-20T02:10:13.533Z,99.83
2022-11-20T02:11:13.495Z,99.64
2022-11-20T02:12:13.457Z,99.73
2022-11-20T02:13:13.419Z,98.79
2022-11-20T02:14:13.383Z,99.99
2022-11-20T02:15:13.348Z,99.83
2022-11-20T02:16:13.308Z,99.83
2022-11-20T02:17:13.267Z,99.44
2022-11-20T02:18:13.299Z,99.35
2022-11-20T02:19:13.189Z,99.64
2022-11-20T02:20:13.148Z,99.73
2022-11-20T02:21:13.107Z,99.83
2022-11-20T02:22:13.074Z,99.92
2022-11-20T02:23:13.030Z,99.54
2022-11-20T02:24:12.995Z,99.73
2022-11-20T02:25:12.950Z,99.64
2022-11-20T02:26:12.914Z,99.73
2022-11-20T02:27:12.883Z,99.64
2022-11-20T02:28:12.840Z,99.64
2022-11-20T02:29:12.798Z,99.92
2022-11-20T02:30:12.762Z,99.54
2022-11-20T02:31:12.720Z,99.83
2022-11-20T02:32:12.681Z,99.92
2022-11-20T02:33:12.645Z,99.26
2022-11-20T02:34:12.609Z,99.92
2022-11-20T02:35:12.568Z,99.58
2022-11-20T02:36:12.536Z,99.35
2022-11-20T02:37:12.492Z,99.73
2022-11-20T02:38:12.455Z,99.58
2022-11-20T02:39:12.414Z,99.35
2022-11-20T02:40:12.377Z,99.58
2022-11-20T02:41:12.457Z,99.35
2022-11-20T02:42:12.305Z,99.35
2022-11-20T02:43:12.262Z,99.73
2022-11-20T02:44:12.222Z,99.87
2022-11-20T02:45:12.242Z,99.44
2022-11-20T02:46:12.150Z,99.16
2022-11-20T02:47:12.102Z,99.35
2022-11-20T02:48:12.070Z,99.44
2022-11-20T02:49:12.030Z,99.73
2022-11-20T02:50:11.991Z,99.26
2022-11-20T02:51:11.950Z,99.54
2022-11-20T02:52:11.916Z,99.83
2022-11-20T02:53:11.872Z,99.73
2022-11-20T02:54:11.836Z,99.99
2022-11-20T02:55:11.796Z,99.92
2022-11-20T02:56:11.761Z,99.73
2022-11-20T02:57:11.718Z,99.83
2022-11-20T02:58:11.687Z,99.54
2022-11-20T02:59:11.640Z,99.73
2022-11-20T03:00:11.602Z,99.64
2022-11-20T03:01:11.647Z,99.64
2022-11-20T03:02:11.534Z,99.73
2022-11-20T03:03:11.494Z,99.99
2022-11-20T03:04:11.448Z,99.99
2022-11-20T03:05:11.414Z,99.64
2022-11-20T03:06:11.396Z,99.44
2022-11-20T03:07:11.388Z,99.64
2022-11-20T03:08:11.297Z,99.83
2022-11-20T03:09:11.256Z,99.73
2022-11-20T03:10:11.217Z,99.64
2022-11-20T03:11:11.181Z,99.54
2022-11-20T03:12:11.139Z,99.83
2022-11-20T03:13:11.101Z,99.92
2022-11-20T03:14:11.070Z,99.26
2022-11-20T03:15:11.080Z,99.64
2022-11-20T03:16:10.995Z,99.92
2022-11-20T03:17:10.947Z,99.44
2022-11-20T03:18:10.929Z,99.54
2022-11-20T03:19:10.872Z,99.44
2022-11-20T03:20:10.832Z,99.73
2022-11-20T03:21:10.849Z,99.73
2022-11-20T03:22:10.759Z,99.35
2022-11-20T03:23:10.715Z,99.73
2022-11-20T03:24:10.680Z,99.54
2022-11-20T03:25:10.637Z,99.54
2022-11-20T03:26:10.604Z,99.73
2022-11-20T03:27:10.563Z,99.64
2022-11-20T03:28:10.527Z,99.64
2022-11-20T03:29:10.488Z,99.54
2022-11-20T03:30:10.446Z,99.73
2022-11-20T03:31:10.407Z,99.92
2022-11-20T03:32:10.370Z,99.64
2022-11-20T03:33:10.332Z,99.73
2022-11-20T03:34:10.299Z,99.73
2022-11-20T03:35:10.257Z,99.73
2022-11-20T03:36:10.218Z,99.73
2022-11-20T03:37:10.176Z,99.64
2022-11-20T03:38:10.158Z,99.73
2022-11-20T03:39:10.102Z,99.26
2022-11-20T03:40:10.068Z,99.26
2022-11-20T03:41:10.021Z,99.73
2022-11-20T03:42:09.986Z,99.54
2022-11-20T03:43:09.948Z,99.54
2022-11-20T03:44:09.906Z,99.64
2022-11-20T03:45:09.876Z,99.54
2022-11-20T03:46:09.833Z,99.54
2022-11-20T03:47:09.792Z,99.73
2022-11-20T03:48:09.752Z,99.64
2022-11-20T03:49:09.726Z,99.58
2022-11-20T03:50:09.673Z,99.58
2022-11-20T03:51:09.637Z,99.73
2022-11-20T03:52:09.602Z,99.54
2022-11-20T03:53:09.557Z,99.99
2022-11-20T03:54:09.521Z,99.99
2022-11-20T03:55:09.490Z,99.83
2022-11-20T03:56:09.444Z,99.64
2022-11-20T03:57:09.409Z,99.99
2022-11-20T03:58:09.368Z,99.99
2022-11-20T03:59:09.329Z,99.99
2022-11-20T04:00:09.298Z,99.99
2022-11-20T04:01:09.256Z,99.99
2022-11-20T04:02:09.295Z,99.99
2022-11-20T04:03:09.173Z,99.99
2022-11-20T04:04:09.141Z,99.68
2022-11-20T04:05:09.111Z,99.87
2022-11-20T04:06:09.067Z,99.49
2022-11-20T04:07:09.091Z,99.68
2022-11-20T04:08:08.986Z,99.49
2022-11-20T04:09:08.945Z,99.87
2022-11-20T04:10:08.902Z,99.92
2022-11-20T04:11:08.865Z,99.92
2022-11-20T04:12:08.833Z,99.97
2022-11-20T04:13:08.792Z,99.99
2022-11-20T04:14:08.752Z,99.99
2022-11-20T04:15:08.726Z,99.99
2022-11-20T04:16:08.677Z,99.99
2022-11-20T04:17:08.640Z,99.77
2022-11-20T04:18:08.634Z,99.87
2022-11-20T04:19:08.561Z,99.97
2022-11-20T04:20:08.522Z,99.99
2022-11-20T04:21:08.481Z,99.99
2022-11-20T04:22:08.443Z,99.99
2022-11-20T04:23:08.404Z,99.99
2022-11-20T04:24:08.368Z,99.49
2022-11-20T04:25:08.328Z,99.99
2022-11-20T04:26:08.292Z,99.99
2022-11-20T04:27:08.296Z,99.99
2022-11-20T04:28:08.210Z,99.99
2022-11-20T04:29:08.170Z,99.99
2022-11-20T04:30:08.134Z,99.99
2022-11-20T04:31:08.121Z,99.99
2022-11-20T04:32:08.072Z,99.99
2022-11-20T04:33:08.015Z,99.97
2022-11-20T04:34:07.999Z,99.99
2022-11-20T04:35:07.950Z,99.99
2022-11-20T04:36:07.902Z,99.58
2022-11-20T04:37:07.872Z,99.92
2022-11-20T04:38:07.823Z,99.87
2022-11-20T04:39:07.784Z,99.99
2022-11-20T04:40:07.744Z,99.97
2022-11-20T04:41:07.705Z,99.99
2022-11-20T04:42:07.673Z,99.99
2022-11-20T04:43:07.632Z,99.77
2022-11-20T04:44:07.595Z,99.99
2022-11-20T04:45:07.553Z,99.40
2022-11-20T04:46:07.544Z,99.68
2022-11-20T04:47:07.474Z,99.87
2022-11-20T04:48:07.434Z,99.99
2022-11-20T04:49:07.402Z,99.97
2022-11-20T04:50:07.391Z,99.87
2022-11-20T04:51:07.334Z,99.99
2022-11-20T04:52:07.282Z,99.77
2022-11-20T04:53:07.242Z,99.99
2022-11-20T04:54:07.207Z,99.99
2022-11-20T04:55:07.166Z,99.68
2022-11-20T04:56:07.133Z,99.99
2022-11-20T04:57:12.907Z,99.99
2022-11-20T04:58:07.053Z,99.99
2022-11-20T04:59:07.014Z,99.99
2022-11-20T05:00:06.972Z,99.99
2022-11-20T05:01:06.997Z,99.99
2022-11-20T05:02:06.898Z,99.99
2022-11-20T05:03:06.854Z,99.99
2022-11-20T05:04:06.822Z,99.99
2022-11-20T05:05:06.784Z,99.99
2022-11-20T05:06:06.760Z,99.99
2022-11-20T05:07:06.733Z,99.99
2022-11-20T05:08:06.665Z,99.99
2022-11-20T05:09:06.626Z,99.99
2022-11-20T05:10:06.602Z,99.99
2022-11-20T05:11:06.553Z,99.99
2022-11-20T05:12:06.511Z,99.99
2022-11-20T05:13:06.469Z,99.99
2022-11-20T05:14:06.433Z,99.99
2022-11-20T05:15:06.398Z,99.99
2022-11-20T05:16:06.356Z,99.99
2022-11-20T05:17:06.317Z,99.99
2022-11-20T05:18:06.280Z,99.99
2022-11-20T05:19:06.237Z,99.99
2022-11-20T05:20:06.216Z,99.99
2022-11-20T05:21:06.165Z,99.99
2022-11-20T05:22:06.120Z,99.99
2022-11-20T05:23:06.086Z,99.99
2022-11-20T05:24:06.045Z,99.99
2022-11-20T05:25:06.013Z,99.99
2022-11-20T05:26:05.978Z,99.99
2022-11-20T05:27:05.939Z,99.99
2022-11-20T05:28:05.891Z,99.99
2022-11-20T05:29:05.855Z,99.99
2022-11-20T05:30:05.817Z,99.99
2022-11-20T05:31:05.831Z,99.99
2022-11-20T05:32:05.740Z,99.99
2022-11-20T05:33:05.770Z,99.99
2022-11-20T05:34:05.658Z,99.99
2022-11-20T05:35:05.624Z,99.99
2022-11-20T05:36:05.587Z,99.99
2022-11-20T05:37:05.587Z,99.99
2022-11-20T05:38:05.508Z,99.99
2022-11-20T05:39:05.464Z,99.99
2022-11-20T05:40:05.426Z,99.99
2022-11-20T05:41:05.390Z,99.99
2022-11-20T05:42:05.360Z,99.99
2022-11-20T05:43:05.334Z,99.99
2022-11-20T05:44:05.275Z,99.99
2022-11-20T05:45:05.237Z,99.99
2022-11-20T05:46:05.199Z,99.99
2022-11-20T05:47:05.156Z,99.99
2022-11-20T05:48:05.118Z,99.99
2022-11-20T05:49:05.078Z,99.99
2022-11-20T05:50:05.061Z,99.99
2022-11-20T05:51:04.999Z,99.99
2022-11-20T05:52:04.966Z,99.99
2022-11-20T05:53:04.924Z,99.99
2022-11-20T05:54:04.888Z,99.99
2022-11-20T05:55:04.848Z,99.99
2022-11-20T05:56:04.859Z,99.99
2022-11-20T05:57:04.765Z,99.99
2022-11-20T05:58:04.729Z,99.99
2022-11-20T05:59:04.691Z,99.99
2022-11-20T06:00:04.652Z,99.99
2022-11-20T06:01:04.614Z,99.99
2022-11-20T06:02:04.577Z,99.99
2022-11-20T06:03:04.587Z,99.99
2022-11-20T06:04:04.505Z,99.99
2022-11-20T06:05:04.466Z,99.99
2022-11-20T06:06:04.422Z,99.99
2022-11-20T06:07:04.440Z,99.99
2022-11-20T06:08:04.345Z,99.99
2022-11-20T06:09:04.303Z,99.99
2022-11-20T06:10:04.265Z,99.99
2022-11-20T06:11:04.232Z,99.99
2022-11-20T06:12:04.192Z,99.99
2022-11-20T06:13:04.193Z,99.99
2022-11-20T06:14:04.111Z,99.99
2022-11-20T06:15:04.071Z,99.99
2022-11-20T06:16:04.033Z,99.99
2022-11-20T06:17:03.993Z,99.99
2022-11-20T06:18:03.965Z,99.99
2022-11-20T06:19:03.917Z,99.99
2022-11-20T06:20:03.883Z,99.99
2022-11-20T06:21:03.837Z,99.99
2022-11-20T06:22:03.801Z,99.99
2022-11-20T06:23:03.766Z,99.99
2022-11-20T06:24:03.725Z,99.99
2022-11-20T06:25:03.692Z,99.99
2022-11-20T06:26:03.651Z,99.99
2022-11-20T06:27:03.614Z,99.99
2022-11-20T06:28:03.574Z,99.99
2022-11-20T06:29:03.532Z,99.99
2022-11-20T06:30:03.519Z,99.99
2022-11-20T06:31:03.455Z,99.99
2022-11-20T06:32:03.419Z,99.99
2022-11-20T06:33:03.380Z,99.99
2022-11-20T06:34:03.336Z,99.99
2022-11-20T06:35:03.379Z,99.99
2022-11-20T06:36:07.453Z,99.99
2022-11-20T06:37:03.221Z,99.99
2022-11-20T06:38:03.184Z,99.99
2022-11-20T06:39:03.143Z,99.99
2022-11-20T06:40:03.108Z,99.99
2022-11-20T06:41:03.067Z,99.99
2022-11-20T06:42:03.065Z,99.99
2022-11-20T06:43:02.990Z,99.99
2022-11-20T06:44:02.953Z,99.99
2022-11-20T06:45:02.916Z,99.99
2022-11-20T06:46:02.902Z,99.99
2022-11-20T06:47:02.840Z,99.99
2022-11-20T06:48:02.796Z,99.83
2022-11-20T06:49:02.760Z,99.99
2022-11-20T06:50:02.723Z,99.99
2022-11-20T06:51:02.699Z,99.99
2022-11-20T06:52:02.642Z,99.99
2022-11-20T06:53:02.602Z,99.99
2022-11-20T06:54:03.214Z,99.99
2022-11-20T06:55:02.538Z,99.77
2022-11-20T06:56:02.490Z,99.99
2022-11-20T06:57:02.453Z,99.99
2022-11-20T06:58:02.411Z,99.99
2022-11-20T06:59:02.375Z,99.92
2022-11-20T07:00:02.339Z,99.99
2022-11-20T07:01:02.346Z,99.99
2022-11-20T07:02:02.306Z,99.99
2022-11-20T07:03:02.220Z,99.99
2022-11-20T07:04:02.179Z,99.99
2022-11-20T07:05:02.141Z,99.99
2022-11-20T07:06:02.110Z,99.99
2022-11-20T07:07:02.104Z,99.99
2022-11-20T07:08:02.078Z,99.99
2022-11-20T07:09:01.990Z,99.99
2022-11-20T07:10:01.947Z,99.99
2022-11-20T07:11:01.906Z,99.99
2022-11-20T07:12:01.876Z,99.99
2022-11-20T07:13:01.837Z,99.99
2022-11-20T07:14:01.801Z,99.99
2022-11-20T07:15:01.758Z,99.83
2022-11-20T07:16:01.721Z,99.92
2022-11-20T07:17:01.677Z,99.99
2022-11-20T07:18:01.647Z,99.99
2022-11-20T07:19:01.599Z,99.99
2022-11-20T07:20:01.571Z,99.99
2022-11-20T07:21:01.529Z,99.73
2022-11-20T07:22:01.488Z,99.99
2022-11-20T07:23:01.448Z,99.99
2022-11-20T07:24:01.412Z,99.99
2022-11-20T07:25:01.375Z,99.99
2022-11-20T07:26:01.335Z,99.83
2022-11-20T07:27:01.303Z,99.83
2022-11-20T07:28:01.262Z,99.99
2022-11-20T07:29:01.221Z,99.83
2022-11-20T07:30:01.186Z,99.99
2022-11-20T07:31:01.143Z,99.99
2022-11-20T07:32:01.098Z,99.99
2022-11-20T07:33:01.059Z,99.99
2022-11-20T07:34:01.042Z,99.99
2022-11-20T07:35:01.000Z,99.99
2022-11-20T07:36:00.961Z,99.99
2022-11-20T07:37:02.219Z,99.99
2022-11-20T07:38:00.886Z,99.99
2022-11-20T07:39:00.830Z,99.99
2022-11-20T07:40:00.798Z,99.99
2022-11-20T07:41:00.769Z,99.99
2022-11-20T07:42:00.721Z,99.99
2022-11-20T07:43:00.682Z,99.99
2022-11-20T07:44:00.644Z,99.99
2022-11-20T07:45:00.605Z,99.99
2022-11-20T07:46:00.564Z,99.99
2022-11-20T07:47:00.525Z,99.99
2022-11-20T07:48:00.485Z,99.99
2022-11-20T07:49:00.447Z,99.99
2022-11-20T07:50:00.410Z,99.99
2022-11-20T07:51:00.367Z,99.99
2022-11-20T07:52:04.543Z,99.99
2022-11-20T07:53:00.359Z,99.99
2022-11-20T07:54:00.255Z,99.99
2022-11-20T07:55:00.229Z,99.99
2022-11-20T07:56:00.179Z,99.99
2022-11-20T07:57:00.136Z,99.99
2022-11-20T07:58:00.141Z,99.99
2022-11-20T07:59:00.065Z,99.99
2022-11-20T08:00:00.025Z,99.99
2022-11-20T08:01:00.033Z,99.99
2022-11-20T08:01:59.946Z,99.99
2022-11-20T08:02:59.907Z,99.99
2022-11-20T08:03:59.870Z,99.99
2022-11-20T08:04:59.827Z,99.99
2022-11-20T08:05:59.801Z,99.99
2022-11-20T08:06:59.847Z,99.99
2022-11-20T08:07:59.715Z,99.99
2022-11-20T08:08:59.679Z,99.99
2022-11-20T08:09:59.649Z,99.99
2022-11-20T08:10:59.598Z,99.99
2022-11-20T08:11:59.559Z,99.99
2022-11-20T08:12:59.523Z,99.99
2022-11-20T08:13:59.484Z,99.99
2022-11-20T08:14:59.443Z,99.99
2022-11-20T08:15:59.414Z,99.99
2022-11-20T08:16:59.366Z,99.99
2022-11-20T08:18:29.030Z,99.99
2022-11-20T08:18:59.295Z,99.99
2022-11-20T08:19:59.251Z,99.99
2022-11-20T08:20:59.217Z,99.99
2022-11-20T08:21:59.178Z,99.99
2022-11-20T08:22:59.140Z,99.99
2022-11-20T08:23:59.100Z,99.99
2022-11-20T08:24:59.065Z,99.99
2022-11-20T08:25:59.031Z,99.99
2022-11-20T08:26:58.984Z,99.99
2022-11-20T08:28:00.384Z,99.99
2022-11-20T08:28:58.953Z,99.99
2022-11-20T08:29:58.870Z,99.99
2022-11-20T08:30:58.828Z,99.99
2022-11-20T08:31:58.852Z,99.99
2022-11-20T08:32:58.757Z,99.99
2022-11-20T08:33:58.752Z,99.99
2022-11-20T08:34:58.679Z,99.99
2022-11-20T08:35:58.635Z,99.78
2022-11-20T08:36:58.605Z,99.99
2022-11-20T08:37:58.562Z,99.99
2022-11-20T08:38:58.521Z,99.99
2022-11-20T08:39:58.492Z,99.99
2022-11-20T08:40:58.449Z,99.99
2022-11-20T08:41:58.410Z,99.73
2022-11-20T08:42:58.368Z,99.99
2022-11-20T08:43:58.333Z,99.99
2022-11-20T08:44:58.293Z,99.99
2022-11-20T08:45:58.256Z,99.99
2022-11-20T08:46:58.219Z,99.99
2022-11-20T08:47:58.177Z,99.99
2022-11-20T08:48:58.136Z,99.99
2022-11-20T08:49:58.105Z,99.97
2022-11-20T08:50:58.064Z,99.99
2022-11-20T08:51:58.030Z,99.88
2022-11-20T08:52:57.994Z,99.99
2022-11-20T08:53:57.961Z,99.99
2022-11-20T08:54:57.997Z,99.99
2022-11-20T08:55:57.880Z,99.99
2022-11-20T08:56:57.833Z,99.78
2022-11-20T08:57:57.801Z,99.88
2022-11-20T09:00:05.935Z,99.99
2022-11-20T09:00:57.721Z,99.99
2022-11-20T09:01:57.645Z,99.99
2022-11-20T09:02:57.603Z,99.50
2022-11-20T09:03:57.571Z,99.78
2022-11-20T09:04:57.545Z,99.88
2022-11-20T09:05:57.491Z,99.88
2022-11-20T09:06:57.523Z,99.40
2022-11-20T09:07:57.427Z,99.50
2022-11-20T09:08:59.714Z,99.59
2022-11-20T09:10:22.259Z,99.97
2022-11-20T09:10:57.297Z,99.59
2022-11-20T09:11:57.260Z,99.69
2022-11-20T09:12:57.227Z,99.59
2022-11-20T09:13:57.191Z,99.78
2022-11-20T09:14:57.154Z,99.78
2022-11-20T09:15:57.108Z,99.84
2022-11-20T09:16:57.075Z,99.59
2022-11-20T09:17:57.041Z,99.59
2022-11-20T09:19:20.252Z,99.93
2022-11-20T09:19:56.955Z,99.64
2022-11-20T09:20:56.943Z,99.84
2022-11-20T09:21:59.728Z,99.59
2022-11-20T09:22:56.843Z,99.74
2022-11-20T09:23:56.803Z,99.55
2022-11-20T09:24:56.772Z,99.93
2022-11-20T09:25:56.733Z,99.55
2022-11-20T09:26:56.688Z,99.74
2022-11-20T09:27:56.665Z,99.74
2022-11-20T09:28:58.084Z,99.99
2022-11-20T09:29:56.579Z,99.93
2022-11-20T09:30:56.546Z,99.84
2022-11-20T09:31:56.504Z,99.16
2022-11-20T09:32:56.469Z,98.97
2022-11-20T09:33:56.422Z,99.36
2022-11-20T09:34:56.493Z,99.36
2022-11-20T09:35:56.354Z,99.16
2022-11-20T09:36:56.615Z,99.16
2022-11-20T09:37:56.281Z,99.16
2022-11-20T09:38:56.238Z,99.16
2022-11-20T09:39:56.200Z,99.26
2022-11-20T09:40:56.165Z,99.07
2022-11-20T09:41:56.119Z,99.16
2022-11-20T09:42:56.084Z,98.88
2022-11-20T09:43:56.121Z,98.69
2022-11-20T09:44:56.010Z,98.79
2022-11-20T09:45:55.972Z,98.69
2022-11-20T09:46:55.936Z,98.88
2022-11-20T09:47:55.898Z,99.16
2022-11-20T09:48:55.858Z,99.07
2022-11-20T09:49:55.822Z,99.07
2022-11-20T09:50:55.789Z,98.79
2022-11-20T09:51:55.742Z,98.79
2022-11-20T09:52:55.747Z,99.55
2022-11-20T09:53:55.668Z,99.45
2022-11-20T09:54:55.631Z,98.69
2022-11-20T09:55:55.605Z,98.69
2022-11-20T09:56:55.566Z,99.55
2022-11-20T09:57:55.516Z,99.26
2022-11-20T09:58:55.484Z,98.97
2022-11-20T09:59:55.441Z,99.36
2022-11-20T10:00:55.467Z,98.97
2022-11-20T10:01:55.372Z,99.55
2022-11-20T10:02:55.332Z,99.45
2022-11-20T10:03:55.289Z,99.45
2022-11-20T10:04:55.271Z,99.16
2022-11-20T10:05:55.217Z,99.07
2022-11-20T10:07:10.577Z,99.36
2022-11-20T10:07:55.184Z,99.26
2022-11-20T10:08:55.096Z,99.07
2022-11-20T10:09:55.060Z,99.55
2022-11-20T10:10:55.026Z,99.45
2022-11-20T10:11:54.989Z,99.26
2022-11-20T10:12:54.947Z,98.97
2022-11-20T10:13:54.914Z,99.16
2022-11-20T10:14:54.879Z,99.45
2022-11-20T10:15:54.837Z,99.36
2022-11-20T10:16:54.800Z,98.97
2022-11-20T10:17:54.759Z,98.97
2022-11-20T10:18:54.724Z,99.07
2022-11-20T10:19:54.688Z,98.69
2022-11-20T10:20:54.654Z,98.88
2022-11-20T10:21:54.606Z,99.07
2022-11-20T10:22:54.572Z,98.88
2022-11-20T10:23:54.539Z,99.07
2022-11-20T10:24:54.490Z,98.69
2022-11-20T10:25:54.460Z,98.50
2022-11-20T10:26:54.424Z,98.50
2022-11-20T10:27:54.380Z,98.50
2022-11-20T10:28:59.179Z,98.60
2022-11-20T10:29:54.307Z,98.60
2022-11-20T10:30:54.269Z,98.69
2022-11-20T10:31:54.231Z,98.41
2022-11-20T10:32:54.199Z,99.16
2022-11-20T10:34:11.652Z,98.97
2022-11-20T10:34:54.113Z,98.88
2022-11-20T10:35:54.080Z,98.41
2022-11-20T10:36:54.043Z,98.50
2022-11-20T10:37:54.014Z,98.03
2022-11-20T10:38:53.970Z,98.97
2022-11-20T10:39:53.943Z,98.97
2022-11-20T10:40:53.886Z,98.97
2022-11-20T10:41:53.858Z,98.97
2022-11-20T10:42:53.812Z,98.69
2022-11-20T10:43:53.776Z,98.69
2022-11-20T10:44:56.530Z,99.02
2022-11-20T10:45:53.700Z,98.69
2022-11-20T10:46:53.662Z,99.16
2022-11-20T10:47:53.629Z,98.97
2022-11-20T10:48:53.594Z,99.12
2022-11-20T10:49:53.557Z,98.69
2022-11-20T10:50:53.513Z,99.02
2022-11-20T10:51:53.481Z,98.12
2022-11-20T10:52:53.436Z,98.41
2022-11-20T10:53:53.409Z,98.46
2022-11-20T10:54:53.374Z,98.55
2022-11-20T10:55:53.334Z,98.46
2022-11-20T10:56:53.284Z,98.36
2022-11-20T10:57:53.251Z,98.41
2022-11-20T10:58:53.209Z,98.31
2022-11-20T10:59:53.173Z,98.50
2022-11-20T11:00:53.154Z,98.41
2022-11-20T11:01:53.122Z,98.46
2022-11-20T11:02:53.061Z,98.31
2022-11-20T11:03:53.024Z,98.55
2022-11-20T11:04:52.985Z,98.74
2022-11-20T11:05:52.946Z,98.46
2022-11-20T11:06:52.909Z,98.50
2022-11-20T11:07:52.876Z,98.74
2022-11-20T11:08:52.832Z,98.46
2022-11-20T11:09:52.797Z,98.74
2022-11-20T11:10:52.779Z,98.55
2022-11-20T11:11:52.733Z,98.36
2022-11-20T11:12:52.685Z,98.55
2022-11-20T11:13:52.647Z,98.55
2022-11-20T11:14:52.608Z,98.74
2022-11-20T11:15:52.573Z,98.36
2022-11-20T11:16:52.544Z,98.74
2022-11-20T11:17:52.499Z,98.36
2022-11-20T11:18:52.454Z,98.74
2022-11-20T11:19:52.420Z,98.46
2022-11-20T11:20:52.393Z,98.65
2022-11-20T11:21:55.418Z,98.65
2022-11-20T11:22:52.302Z,98.46
2022-11-20T11:23:52.273Z,98.65
2022-11-20T11:24:52.236Z,98.65
2022-11-20T11:25:52.195Z,97.88
2022-11-20T11:26:52.156Z,98.65
2022-11-20T11:27:52.119Z,98.36
2022-11-20T11:28:52.088Z,97.50
2022-11-20T11:29:52.043Z,98.27
2022-11-20T11:30:52.004Z,98.83
2022-11-20T11:31:51.975Z,98.65
2022-11-20T11:32:51.940Z,98.65
2022-11-20T11:33:51.942Z,98.65
2022-11-20T11:34:51.855Z,98.55
2022-11-20T11:35:51.979Z,98.65
2022-11-20T11:36:51.778Z,98.74
2022-11-20T11:37:51.745Z,98.27
2022-11-20T11:38:51.706Z,98.27
2022-11-20T11:40:03.961Z,98.08
2022-11-20T11:40:51.629Z,98.08
2022-11-20T11:41:51.605Z,98.55
2022-11-20T11:42:51.557Z,98.65
2022-11-20T11:43:51.528Z,98.65
2022-11-20T11:44:51.486Z,98.17
2022-11-20T11:45:51.443Z,98.08
2022-11-20T11:46:51.406Z,98.08
2022-11-20T11:47:51.369Z,98.65
2022-11-20T11:48:51.443Z,98.08
2022-11-20T11:49:51.334Z,98.27
2022-11-20T11:50:51.255Z,98.08
2022-11-20T11:51:51.229Z,98.27
2022-11-20T11:52:51.181Z,98.27
2022-11-20T11:53:51.142Z,98.17
2022-11-20T11:54:51.104Z,98.36
2022-11-20T11:55:51.072Z,98.27
2022-11-20T11:56:51.030Z,98.27
2022-11-20T11:57:50.994Z,98.27
2022-11-20T11:58:50.955Z,98.27
2022-11-20T11:59:50.928Z,98.17
2022-11-20T12:00:50.884Z,98.55
2022-11-20T12:01:50.880Z,98.65
2022-11-20T12:02:50.818Z,97.88
2022-11-20T12:03:50.770Z,98.27
2022-11-20T12:04:50.739Z,97.69
2022-11-20T12:05:50.706Z,97.69
2022-11-20T12:06:50.662Z,97.69
2022-11-20T12:07:50.730Z,97.36
2022-11-20T12:08:50.582Z,97.65
2022-11-20T12:09:50.549Z,97.84
2022-11-20T12:10:50.501Z,98.13
2022-11-20T12:11:50.464Z,98.03
2022-11-20T12:12:50.430Z,98.03
2022-11-20T12:13:50.391Z,97.93
2022-11-20T12:14:50.372Z,96.70
2022-11-20T12:15:50.320Z,96.79
2022-11-20T12:16:50.313Z,97.93
2022-11-20T12:17:50.247Z,96.70
2022-11-20T12:18:50.203Z,96.98
2022-11-20T12:19:50.176Z,96.70
2022-11-20T12:20:50.139Z,97.27
2022-11-20T12:21:50.095Z,96.79
2022-11-20T12:22:50.056Z,96.70
2022-11-20T12:23:50.025Z,97.08
2022-11-20T12:24:49.980Z,96.98
2022-11-20T12:25:49.954Z,96.79
2022-11-20T12:26:49.919Z,96.70
2022-11-20T12:27:49.873Z,97.17
2022-11-20T12:28:49.839Z,96.98
2022-11-20T12:29:49.793Z,97.36
2022-11-20T12:30:49.764Z,96.70
2022-11-20T12:31:49.730Z,97.08
2022-11-20T12:32:49.684Z,97.17
2022-11-20T12:33:49.646Z,96.79
2022-11-20T12:34:49.612Z,97.17
2022-11-20T12:35:49.576Z,96.79
2022-11-20T12:36:49.545Z,96.79
2022-11-20T12:37:49.501Z,97.08
2022-11-20T12:38:49.472Z,96.79
2022-11-20T12:39:49.427Z,96.89
2022-11-20T12:40:49.389Z,96.98
2022-11-20T12:41:49.356Z,96.79
2022-11-20T12:42:49.312Z,96.79
2022-11-20T12:43:49.284Z,96.79
2022-11-20T12:44:49.251Z,96.89
2022-11-20T12:45:49.202Z,96.79
2022-11-20T12:46:49.163Z,96.98
2022-11-20T12:47:49.128Z,96.98
2022-11-20T12:48:49.090Z,96.98
2022-11-20T12:49:49.052Z,97.08
2022-11-20T12:51:13.378Z,96.79
2022-11-20T12:51:48.977Z,97.08
2022-11-20T12:52:48.941Z,97.36